createdAt,value
2022-11-23T00:00:11.174Z,7.92
2022-11-23T00:01:11.179Z,7.96
2022-11-23T00:02:11.210Z,7.96
2022-11-23T00:03:11.146Z,7.99
2022-11-23T00:04:11.134Z,7.99
2022-11-23T00:05:11.121Z,8.00
2022-11-23T00:06:11.123Z,8.02
2022-11-23T00:07:11.136Z,8.03
2022-11-23T00:08:11.091Z,8.04
2022-11-23T00:09:11.085Z,8.07
2022-11-23T00:10:11.068Z,8.09
2022-11-23T00:11:11.068Z,8.09
2022-11-23T00:12:11.048Z,8.10
2022-11-23T00:13:11.031Z,8.10
2022-11-23T00:14:11.023Z,8.10
2022-11-23T00:15:11.012Z,8.13
2022-11-23T00:16:11.013Z,8.14
2022-11-23T00:17:10.987Z,8.14
2022-11-23T00:18:10.981Z,8.14
2022-11-23T00:19:10.965Z,8.14
2022-11-23T00:20:10.960Z,8.13
2022-11-23T00:21:10.952Z,8.10
2022-11-23T00:22:10.937Z,8.09
2022-11-23T00:23:10.925Z,8.07
2022-11-23T00:24:10.914Z,8.07
2022-11-23T00:25:10.930Z,8.07
2022-11-23T00:26:10.903Z,8.07
2022-11-23T00:27:10.877Z,8.07
2022-11-23T00:28:10.870Z,8.07
2022-11-23T00:29:10.857Z,8.06
2022-11-23T00:30:10.848Z,8.07
2022-11-23T00:31:10.843Z,8.07
2022-11-23T00:32:10.830Z,8.09
2022-11-23T00:33:10.812Z,8.09
2022-11-23T00:34:10.805Z,8.09
2022-11-23T00:35:10.787Z,8.12
2022-11-23T00:36:10.793Z,8.10
2022-11-23T00:37:10.767Z,8.10
2022-11-23T00:38:10.758Z,8.09
2022-11-23T00:39:10.744Z,8.10
2022-11-23T00:40:10.736Z,8.09
2022-11-23T00:41:10.735Z,8.09
2022-11-23T00:42:10.725Z,8.09
2022-11-23T00:43:10.699Z,8.09
2022-11-23T00:44:10.695Z,8.09
2022-11-23T00:45:10.677Z,8.10
2022-11-23T00:46:10.683Z,8.12
2022-11-23T00:47:10.660Z,8.12
2022-11-23T00:48:10.648Z,8.10
2022-11-23T00:49:10.632Z,8.12
2022-11-23T00:50:10.626Z,8.13
2022-11-23T00:51:10.622Z,8.17
2022-11-23T00:52:10.605Z,8.18
2022-11-23T00:53:10.589Z,8.18
2022-11-23T00:54:10.583Z,8.20
2022-11-23T00:55:10.567Z,8.18
2022-11-23T00:56:10.572Z,8.20
2022-11-23T00:57:10.545Z,8.20
2022-11-23T00:58:10.540Z,8.21
2022-11-23T00:59:10.523Z,8.20
2022-11-23T01:00:10.517Z,8.21
2022-11-23T01:01:10.641Z,8.18
2022-11-23T01:02:10.494Z,8.20
2022-11-23T01:03:10.478Z,8.18
2022-11-23T01:04:10.473Z,8.20
2022-11-23T01:05:10.457Z,8.22
2022-11-23T01:06:10.462Z,8.24
2022-11-23T01:07:10.504Z,8.27
2022-11-23T01:08:10.428Z,8.29
2022-11-23T01:09:10.411Z,8.31
2022-11-23T01:10:10.406Z,8.36
2022-11-23T01:11:10.405Z,8.34
2022-11-23T01:12:10.383Z,8.37
2022-11-23T01:13:10.369Z,8.39
2022-11-23T01:14:10.364Z,8.40
2022-11-23T01:15:10.345Z,8.40
2022-11-23T01:16:10.349Z,8.39
2022-11-23T01:17:10.327Z,8.39
2022-11-23T01:18:10.317Z,8.40
2022-11-23T01:19:10.305Z,8.40
2022-11-23T01:20:10.295Z,8.40
2022-11-23T01:21:10.290Z,8.40
2022-11-23T01:22:10.272Z,8.40
2022-11-23T01:23:10.257Z,8.43
2022-11-23T01:24:10.253Z,8.45
2022-11-23T01:25:10.235Z,8.46
2022-11-23T01:26:10.238Z,8.47
2022-11-23T01:27:10.214Z,8.47
2022-11-23T01:28:10.207Z,8.46
2022-11-23T01:29:10.191Z,8.46
2022-11-23T01:30:10.185Z,8.49
2022-11-23T01:31:10.178Z,8.49
2022-11-23T01:32:10.162Z,8.50
2022-11-23T01:33:10.150Z,8.49
2022-11-23T01:34:10.141Z,8.47
2022-11-23T01:35:10.123Z,8.46
2022-11-23T01:36:10.128Z,8.45
2022-11-23T01:37:10.107Z,8.45
2022-11-23T01:38:13.836Z,8.42
2022-11-23T01:39:10.087Z,8.42
2022-11-23T01:40:10.072Z,8.43
2022-11-23T01:41:10.069Z,8.43
2022-11-23T01:42:12.817Z,8.43
2022-11-23T01:43:10.041Z,8.40
2022-11-23T01:44:10.032Z,8.39
2022-11-23T01:45:10.021Z,8.37
2022-11-23T01:46:10.021Z,8.39
2022-11-23T01:47:10.000Z,8.39
2022-11-23T01:48:09.999Z,8.39
2022-11-23T01:49:09.975Z,8.39
2022-11-23T01:50:09.964Z,8.40
2022-11-23T01:51:09.968Z,8.39
2022-11-23T01:52:09.943Z,8.40
2022-11-23T01:53:09.926Z,8.40
2022-11-23T01:54:09.923Z,8.40
2022-11-23T01:55:09.904Z,8.40
2022-11-23T01:56:09.907Z,8.42
2022-11-23T01:57:09.882Z,8.40
2022-11-23T01:58:09.881Z,8.40
2022-11-23T01:59:09.861Z,8.39
2022-11-23T02:00:09.852Z,8.40
2022-11-23T02:01:09.886Z,8.40
2022-11-23T02:02:09.832Z,8.40
2022-11-23T02:03:09.818Z,8.40
2022-11-23T02:04:09.810Z,8.40
2022-11-23T02:05:09.794Z,8.39
2022-11-23T02:06:09.802Z,8.37
2022-11-23T02:07:09.810Z,8.37
2022-11-23T02:08:09.764Z,8.34
2022-11-23T02:09:09.749Z,8.36
2022-11-23T02:10:09.744Z,8.37
2022-11-23T02:11:09.738Z,8.39
2022-11-23T02:12:09.719Z,8.39
2022-11-23T02:13:09.705Z,8.36
2022-11-23T02:14:09.700Z,8.36
2022-11-23T02:15:09.682Z,8.37
2022-11-23T02:16:09.689Z,8.37
2022-11-23T02:17:09.659Z,8.36
2022-11-23T02:18:09.655Z,8.36
2022-11-23T02:19:09.642Z,8.34
2022-11-23T02:20:09.632Z,8.36
2022-11-23T02:21:09.632Z,8.32
2022-11-23T02:22:09.610Z,8.31
2022-11-23T02:23:09.596Z,8.29
2022-11-23T02:24:09.587Z,8.29
2022-11-23T02:25:09.574Z,8.25
2022-11-23T02:26:09.575Z,8.25
2022-11-23T02:27:09.552Z,8.24
2022-11-23T02:28:09.543Z,8.22
2022-11-23T02:29:09.533Z,8.22
2022-11-23T02:30:09.523Z,8.21
2022-11-23T02:31:09.519Z,8.22
2022-11-23T02:32:09.503Z,8.22
2022-11-23T02:33:09.486Z,8.20
2022-11-23T02:34:09.477Z,8.20
2022-11-23T02:35:09.465Z,8.21
2022-11-23T02:36:09.469Z,8.22
2022-11-23T02:37:09.439Z,8.22
2022-11-23T02:38:09.443Z,8.22
2022-11-23T02:39:09.417Z,8.24
2022-11-23T02:40:09.412Z,8.24
2022-11-23T02:41:09.407Z,8.24
2022-11-23T02:42:09.391Z,8.25
2022-11-23T02:43:09.375Z,8.24
2022-11-23T02:44:09.366Z,8.24
2022-11-23T02:45:09.359Z,8.22
2022-11-23T02:46:09.361Z,8.25
2022-11-23T02:47:09.363Z,8.24
2022-11-23T02:48:09.323Z,8.25
2022-11-23T02:49:09.308Z,8.25
2022-11-23T02:50:09.299Z,8.27
2022-11-23T02:51:09.303Z,8.27
2022-11-23T02:52:09.277Z,8.28
2022-11-23T02:53:09.262Z,8.27
2022-11-23T02:54:09.257Z,8.28
2022-11-23T02:55:09.240Z,8.28
2022-11-23T02:56:09.245Z,8.28
2022-11-23T02:57:09.218Z,8.27
2022-11-23T02:58:09.219Z,8.27
2022-11-23T02:59:09.196Z,8.27
2022-11-23T03:00:09.189Z,8.27
2022-11-23T03:01:09.242Z,8.25
2022-11-23T03:02:09.167Z,8.27
2022-11-23T03:03:09.156Z,8.27
2022-11-23T03:04:09.143Z,8.27
2022-11-23T03:05:09.137Z,8.27
2022-11-23T03:06:09.130Z,8.27
2022-11-23T03:07:09.187Z,8.27
2022-11-23T03:08:09.097Z,8.25
2022-11-23T03:09:09.092Z,8.25
2022-11-23T03:10:09.074Z,8.24
2022-11-23T03:11:09.115Z,8.24
2022-11-23T03:12:09.063Z,8.22
2022-11-23T03:13:09.046Z,8.22
2022-11-23T03:14:09.029Z,8.21
2022-11-23T03:15:09.022Z,8.21
2022-11-23T03:16:09.014Z,8.21
2022-11-23T03:17:09.008Z,8.21
2022-11-23T03:18:08.990Z,8.21
2022-11-23T03:19:08.978Z,8.21
2022-11-23T03:20:08.967Z,8.22
2022-11-23T03:21:08.953Z,8.22
2022-11-23T03:22:08.957Z,8.21
2022-11-23T03:23:08.935Z,8.22
2022-11-23T03:24:08.927Z,8.22
2022-11-23T03:25:08.910Z,8.22
2022-11-23T03:26:12.933Z,8.21
2022-11-23T03:27:08.899Z,8.21
2022-11-23T03:28:08.879Z,8.21
2022-11-23T03:29:08.867Z,8.21
2022-11-23T03:30:08.858Z,8.21
2022-11-23T03:31:08.842Z,8.20
2022-11-23T03:32:08.847Z,8.18
2022-11-23T03:33:08.821Z,8.18
2022-11-23T03:34:08.815Z,8.17
2022-11-23T03:35:08.800Z,8.17
2022-11-23T03:36:08.791Z,8.17
2022-11-23T03:37:08.789Z,8.12
2022-11-23T03:38:08.769Z,8.12
2022-11-23T03:39:08.757Z,8.12
2022-11-23T03:40:08.750Z,8.12
2022-11-23T03:41:08.734Z,8.12
2022-11-23T03:42:08.736Z,8.14
2022-11-23T03:43:08.709Z,8.13
2022-11-23T03:44:08.703Z,8.14
2022-11-23T03:45:08.688Z,8.14
2022-11-23T03:46:08.684Z,8.13
2022-11-23T03:47:08.678Z,8.17
2022-11-23T03:48:08.659Z,8.17
2022-11-23T03:49:08.643Z,8.18
2022-11-23T03:50:08.637Z,8.17
2022-11-23T03:51:08.621Z,8.17
2022-11-23T03:52:08.624Z,8.17
2022-11-23T03:53:08.600Z,8.18
2022-11-23T03:54:08.594Z,8.18
2022-11-23T03:55:08.588Z,8.17
2022-11-23T03:56:08.569Z,8.18
2022-11-23T03:57:08.581Z,8.17
2022-11-23T03:58:08.550Z,8.18
2022-11-23T03:59:08.533Z,8.18
2022-11-23T04:00:08.532Z,8.20
2022-11-23T04:01:08.534Z,8.20
2022-11-23T04:02:08.514Z,8.17
2022-11-23T04:03:08.492Z,8.14
2022-11-23T04:04:08.484Z,8.17
2022-11-23T04:05:08.475Z,8.17
2022-11-23T04:06:08.461Z,8.17
2022-11-23T04:07:08.541Z,8.14
2022-11-23T04:08:08.439Z,8.14
2022-11-23T04:09:08.424Z,8.14
2022-11-23T04:10:08.434Z,8.14
2022-11-23T04:11:08.407Z,8.14
2022-11-23T04:12:08.392Z,8.13
2022-11-23T04:13:08.381Z,8.14
2022-11-23T04:14:08.371Z,8.13
2022-11-23T04:15:08.357Z,8.14
2022-11-23T04:16:08.360Z,8.14
2022-11-23T04:17:08.339Z,8.14
2022-11-23T04:18:08.330Z,8.17
2022-11-23T04:19:08.313Z,8.18
2022-11-23T04:20:08.309Z,8.14
2022-11-23T04:21:08.303Z,8.17
2022-11-23T04:22:08.302Z,8.17
2022-11-23T04:23:13.011Z,8.18
2022-11-23T04:24:08.269Z,8.18
2022-11-23T04:25:08.250Z,8.17
2022-11-23T04:26:08.251Z,8.20
2022-11-23T04:27:08.231Z,8.18
2022-11-23T04:28:08.218Z,8.18
2022-11-23T04:29:08.203Z,8.18
2022-11-23T04:30:08.194Z,8.20
2022-11-23T04:31:08.194Z,8.18
2022-11-23T04:32:08.174Z,8.18
2022-11-23T04:33:08.160Z,8.17
2022-11-23T04:34:08.159Z,8.17
2022-11-23T04:35:08.138Z,8.14
2022-11-23T04:36:08.140Z,8.13
2022-11-23T04:37:12.993Z,8.12
2022-11-23T04:38:08.115Z,8.12
2022-11-23T04:39:08.094Z,8.10
2022-11-23T04:40:08.088Z,8.12
2022-11-23T04:41:08.086Z,8.10
2022-11-23T04:42:08.065Z,8.12
2022-11-23T04:43:08.048Z,8.12
2022-11-23T04:44:08.043Z,8.12
2022-11-23T04:45:08.026Z,8.13
2022-11-23T04:46:08.029Z,8.14
2022-11-23T04:47:08.004Z,8.14
2022-11-23T04:48:08.003Z,8.14
2022-11-23T04:49:07.982Z,8.14
2022-11-23T04:50:08.002Z,8.14
2022-11-23T04:51:07.972Z,8.17
2022-11-23T04:52:07.959Z,8.18
2022-11-23T04:53:07.937Z,8.18
2022-11-23T04:54:07.932Z,8.18
2022-11-23T04:55:07.916Z,8.21
2022-11-23T04:56:07.955Z,8.21
2022-11-23T04:57:07.893Z,8.24
2022-11-23T04:58:07.900Z,8.25
2022-11-23T04:59:07.872Z,8.27
2022-11-23T05:00:07.890Z,8.27
2022-11-23T05:01:07.901Z,8.28
2022-11-23T05:02:07.842Z,8.28
2022-11-23T05:03:07.828Z,8.29
2022-11-23T05:04:07.822Z,8.28
2022-11-23T05:05:07.819Z,8.28
2022-11-23T05:06:07.809Z,8.28
2022-11-23T05:07:07.855Z,8.28
2022-11-23T05:08:07.777Z,8.28
2022-11-23T05:09:07.761Z,8.29
2022-11-23T05:10:07.754Z,8.28
2022-11-23T05:11:07.749Z,8.28
2022-11-23T05:12:07.731Z,8.29
2022-11-23T05:13:07.718Z,8.28
2022-11-23T05:14:07.710Z,8.28
2022-11-23T05:15:07.695Z,8.28
2022-11-23T05:16:07.698Z,8.29
2022-11-23T05:17:07.672Z,8.29
2022-11-23T05:18:07.670Z,8.28
2022-11-23T05:19:07.650Z,8.29
2022-11-23T05:20:07.647Z,8.28
2022-11-23T05:21:07.645Z,8.28
2022-11-23T05:22:07.630Z,8.27
2022-11-23T05:23:07.607Z,8.25
2022-11-23T05:24:07.603Z,8.27
2022-11-23T05:25:07.586Z,8.25
2022-11-23T05:26:07.589Z,8.24
2022-11-23T05:27:07.566Z,8.22
2022-11-23T05:28:30.573Z,8.22
2022-11-23T05:29:07.547Z,8.22
2022-11-23T05:30:07.536Z,8.21
2022-11-23T05:31:07.538Z,8.20
2022-11-23T05:32:07.520Z,8.21
2022-11-23T05:33:07.499Z,8.21
2022-11-23T05:34:07.494Z,8.20
2022-11-23T05:35:07.476Z,8.21
2022-11-23T05:36:07.501Z,8.18
2022-11-23T05:37:07.473Z,8.20
2022-11-23T05:38:07.450Z,8.18
2022-11-23T05:39:07.431Z,8.17
2022-11-23T05:40:07.427Z,8.18
2022-11-23T05:41:07.419Z,8.18
2022-11-23T05:42:07.405Z,8.20
2022-11-23T05:43:07.387Z,8.18
2022-11-23T05:44:07.383Z,8.18
2022-11-23T05:45:11.326Z,8.18
2022-11-23T05:46:07.393Z,8.17
2022-11-23T05:47:07.344Z,8.18
2022-11-23T05:48:07.337Z,8.20
2022-11-23T05:49:07.323Z,8.18
2022-11-23T05:50:07.317Z,8.18
2022-11-23T05:51:07.317Z,8.20
2022-11-23T05:52:07.294Z,8.18
2022-11-23T05:53:07.277Z,8.17
2022-11-23T05:54:07.296Z,8.14
2022-11-23T05:55:07.256Z,8.14
2022-11-23T05:56:07.250Z,8.17
2022-11-23T05:57:07.245Z,8.17
2022-11-23T05:58:07.228Z,8.14
2022-11-23T05:59:07.211Z,8.14
2022-11-23T06:00:07.204Z,8.14
2022-11-23T06:01:07.189Z,8.13
2022-11-23T06:02:07.194Z,8.13
2022-11-23T06:03:07.166Z,8.13
2022-11-23T06:04:07.252Z,8.13
2022-11-23T06:05:07.161Z,8.13
2022-11-23T06:06:07.139Z,8.13
2022-11-23T06:07:07.184Z,8.13
2022-11-23T06:08:07.112Z,8.13
2022-11-23T06:09:13.133Z,8.13
2022-11-23T06:10:07.091Z,8.14
2022-11-23T06:11:07.085Z,8.13
2022-11-23T06:12:07.077Z,8.13
2022-11-23T06:13:07.066Z,8.14
2022-11-23T06:14:12.741Z,8.14
2022-11-23T06:15:07.044Z,8.14
2022-11-23T06:16:07.025Z,8.14
2022-11-23T06:17:07.035Z,8.14
2022-11-23T06:18:07.002Z,8.14
2022-11-23T06:19:07.007Z,8.17
2022-11-23T06:20:06.999Z,8.17
2022-11-23T06:21:06.974Z,8.20
2022-11-23T06:22:06.968Z,8.20
2022-11-23T06:23:06.951Z,8.20
2022-11-23T06:24:06.935Z,8.20
2022-11-23T06:25:06.937Z,8.21
2022-11-23T06:26:06.920Z,8.21
2022-11-23T06:27:06.919Z,8.22
2022-11-23T06:28:06.899Z,8.22
2022-11-23T06:29:06.885Z,8.22
2022-11-23T06:30:06.872Z,8.22
2022-11-23T06:31:06.877Z,8.21
2022-11-23T06:32:06.859Z,8.22
2022-11-23T06:33:06.848Z,8.21
2022-11-23T06:34:06.826Z,8.20
2022-11-23T06:35:06.829Z,8.20
2022-11-23T06:36:06.803Z,8.18
2022-11-23T06:37:06.806Z,8.17
2022-11-23T06:38:06.789Z,8.17
2022-11-23T06:39:06.775Z,8.17
2022-11-23T06:40:06.758Z,8.18
2022-11-23T06:41:06.753Z,8.17
2022-11-23T06:42:31.276Z,8.24
2022-11-23T06:43:06.738Z,8.22
2022-11-23T06:44:06.715Z,8.22
2022-11-23T06:45:06.714Z,8.22
2022-11-23T06:46:06.696Z,8.21
2022-11-23T06:47:06.698Z,8.21
2022-11-23T06:48:06.674Z,8.20
2022-11-23T06:49:06.664Z,8.20
2022-11-23T06:50:06.655Z,8.20
2022-11-23T06:51:06.655Z,8.18
2022-11-23T06:52:06.639Z,8.18
2022-11-23T06:53:06.623Z,8.17
2022-11-23T06:54:06.606Z,8.17
2022-11-23T06:55:06.606Z,8.17
2022-11-23T06:56:06.583Z,8.14
2022-11-23T06:57:06.587Z,8.14
2022-11-23T06:58:06.571Z,8.17
2022-11-23T06:59:06.553Z,8.17
2022-11-23T07:00:06.543Z,8.18
2022-11-23T07:01:06.582Z,8.17
2022-11-23T07:02:06.527Z,8.17
2022-11-23T07:03:06.511Z,8.17
2022-11-23T07:04:06.498Z,8.18
2022-11-23T07:05:06.490Z,8.18
2022-11-23T07:06:06.472Z,8.17
2022-11-23T07:07:06.505Z,8.18
2022-11-23T07:08:06.452Z,8.17
2022-11-23T07:09:06.445Z,8.17
2022-11-23T07:10:07.418Z,8.14
2022-11-23T07:11:06.423Z,8.17
2022-11-23T07:12:06.423Z,8.14
2022-11-23T07:13:06.399Z,8.14
2022-11-23T07:14:06.385Z,8.17
2022-11-23T07:15:06.389Z,8.17
2022-11-23T07:16:06.360Z,8.18
2022-11-23T07:17:06.356Z,8.18
2022-11-23T07:18:06.352Z,8.20
2022-11-23T07:19:06.338Z,8.21
2022-11-23T07:20:06.317Z,8.22
2022-11-23T07:21:06.310Z,8.24
2022-11-23T07:22:06.296Z,8.24
2022-11-23T07:23:06.299Z,8.24
2022-11-23T07:24:06.273Z,8.24
2022-11-23T07:25:06.268Z,8.24
2022-11-23T07:26:06.250Z,8.24
2022-11-23T07:27:06.265Z,8.24
2022-11-23T07:28:06.244Z,8.24
2022-11-23T07:29:06.222Z,8.24
2022-11-23T07:30:06.212Z,8.25
2022-11-23T07:31:06.200Z,8.24
2022-11-23T07:32:06.188Z,8.24
2022-11-23T07:33:06.181Z,8.25
2022-11-23T07:34:06.166Z,8.28
2022-11-23T07:35:06.152Z,8.27
2022-11-23T07:36:06.159Z,8.28
2022-11-23T07:37:06.135Z,8.29
2022-11-23T07:38:06.137Z,8.31
2022-11-23T07:39:06.107Z,8.31
2022-11-23T07:40:06.340Z,8.34
2022-11-23T07:41:06.084Z,8.36
2022-11-23T07:42:30.896Z,8.36
2022-11-23T07:43:06.090Z,8.37
2022-11-23T07:44:06.081Z,8.40
2022-11-23T07:45:06.041Z,8.43
2022-11-23T07:46:06.055Z,8.47
2022-11-23T07:47:06.020Z,8.50
2022-11-23T07:48:06.025Z,8.52
2022-11-23T07:49:06.024Z,8.52
2022-11-23T07:50:06.008Z,8.52
2022-11-23T07:51:05.994Z,8.52
2022-11-23T07:52:05.969Z,8.49
2022-11-23T07:53:05.980Z,8.49
2022-11-23T07:54:05.952Z,8.49
2022-11-23T07:55:05.969Z,8.49
2022-11-23T07:56:05.925Z,8.49
2022-11-23T07:57:05.910Z,8.54
2022-11-23T07:58:05.979Z,8.50
2022-11-23T07:59:05.885Z,8.52
2022-11-23T08:00:05.879Z,8.52
2022-11-23T08:01:05.865Z,8.52
2022-11-23T08:02:05.893Z,8.54
2022-11-23T08:03:27.337Z,8.54
2022-11-23T08:04:05.840Z,8.57
2022-11-23T08:05:08.746Z,8.55
2022-11-23T08:06:05.818Z,8.54
2022-11-23T08:07:05.796Z,8.57
2022-11-23T08:08:05.799Z,8.58
2022-11-23T08:09:05.774Z,8.60
2022-11-23T08:10:05.771Z,8.61
2022-11-23T08:11:05.759Z,8.61
2022-11-23T08:12:05.748Z,8.61
2022-11-23T08:13:05.740Z,8.63
2022-11-23T08:14:05.730Z,8.61
2022-11-23T08:15:05.710Z,8.63
2022-11-23T08:16:05.701Z,8.63
2022-11-23T08:17:05.688Z,8.67
2022-11-23T08:18:05.698Z,8.68
2022-11-23T08:19:05.668Z,8.68
2022-11-23T08:20:05.659Z,8.67
2022-11-23T08:21:05.643Z,8.68
2022-11-23T08:22:05.637Z,8.65
2022-11-23T08:23:05.630Z,8.64
2022-11-23T08:24:05.616Z,8.64
2022-11-23T08:25:05.597Z,8.63
2022-11-23T08:26:09.092Z,8.64
2022-11-23T08:27:05.582Z,8.63
2022-11-23T08:28:05.579Z,8.63
2022-11-23T08:29:05.566Z,8.65
2022-11-23T08:30:05.547Z,8.70
2022-11-23T08:31:05.531Z,8.70
2022-11-23T08:32:05.525Z,8.71
2022-11-23T08:33:05.514Z,8.76
2022-11-23T08:34:05.520Z,8.82
2022-11-23T08:35:05.493Z,8.86
2022-11-23T08:36:05.492Z,8.89
2022-11-23T08:37:05.476Z,8.94
2022-11-23T08:38:05.459Z,8.97
2022-11-23T08:39:05.456Z,8.97
2022-11-23T08:40:05.445Z,8.98
2022-11-23T08:41:05.422Z,8.98
2022-11-23T08:42:05.416Z,8.97
2022-11-23T08:43:05.402Z,8.97
2022-11-23T08:44:05.403Z,8.98
2022-11-23T08:45:05.382Z,9.01
2022-11-23T08:46:09.441Z,9.00
2022-11-23T08:47:05.365Z,9.01
2022-11-23T08:48:05.486Z,9.03
2022-11-23T08:49:05.345Z,9.04
2022-11-23T08:50:05.327Z,9.08
2022-11-23T08:51:05.313Z,9.10
2022-11-23T08:52:05.308Z,9.13
2022-11-23T08:53:05.289Z,9.13
2022-11-23T08:54:05.293Z,9.15
2022-11-23T08:55:05.266Z,9.16
2022-11-23T08:56:05.263Z,9.16
2022-11-23T08:57:05.249Z,9.19
2022-11-23T08:58:10.351Z,9.22
2022-11-23T08:59:05.240Z,9.22
2022-11-23T09:00:05.219Z,9.22
2022-11-23T09:01:05.244Z,9.22
2022-11-23T09:02:05.197Z,9.20
2022-11-23T09:03:05.181Z,9.22
2022-11-23T09:04:05.197Z,9.23
2022-11-23T09:05:05.162Z,9.24
2022-11-23T09:06:05.153Z,9.26
2022-11-23T09:07:05.216Z,9.30
2022-11-23T09:08:05.133Z,9.32
2022-11-23T09:09:05.125Z,9.32
2022-11-23T09:10:05.105Z,9.34
2022-11-23T09:11:05.096Z,9.35
2022-11-23T09:12:05.083Z,9.37
2022-11-23T09:13:05.076Z,9.35
2022-11-23T09:14:05.069Z,9.35
2022-11-23T09:15:05.061Z,9.38
2022-11-23T09:16:05.043Z,9.34
2022-11-23T09:17:05.032Z,9.37
2022-11-23T09:18:05.015Z,9.37
2022-11-23T09:19:05.072Z,9.38
2022-11-23T09:20:04.994Z,9.41
2022-11-23T09:21:04.988Z,9.42
2022-11-23T09:22:04.971Z,9.42
2022-11-23T09:23:07.958Z,9.44
2022-11-23T09:24:04.966Z,9.48
2022-11-23T09:25:05.041Z,9.52
2022-11-23T09:26:04.931Z,9.52
2022-11-23T09:27:04.924Z,9.55
2022-11-23T09:28:04.905Z,9.56
2022-11-23T09:29:04.910Z,9.59
2022-11-23T09:30:04.884Z,9.65
2022-11-23T09:31:04.883Z,9.68
2022-11-23T09:32:04.865Z,9.70
2022-11-23T09:33:04.860Z,9.70
2022-11-23T09:34:04.849Z,9.73
2022-11-23T09:35:04.846Z,9.75
2022-11-23T09:36:04.818Z,9.78
2022-11-23T09:37:04.810Z,9.80
2022-11-23T09:38:04.807Z,9.83
2022-11-23T09:39:04.799Z,9.83
2022-11-23T09:40:04.777Z,9.83
2022-11-23T09:41:04.766Z,9.78
2022-11-23T09:42:04.750Z,9.81
2022-11-23T09:43:04.744Z,9.83
2022-11-23T09:44:04.744Z,9.88
2022-11-23T09:45:04.724Z,9.91
2022-11-23T09:46:04.707Z,9.93
2022-11-23T09:47:04.700Z,9.96
2022-11-23T09:48:04.751Z,9.98
2022-11-23T09:49:04.692Z,9.99
2022-11-23T09:50:04.669Z,9.99
2022-11-23T09:51:04.658Z,10.01
2022-11-23T09:52:04.640Z,10.02
2022-11-23T09:53:04.731Z,10.06
2022-11-23T09:54:04.630Z,10.09
2022-11-23T09:55:04.632Z,10.13
2022-11-23T09:56:04.603Z,10.13
2022-11-23T09:57:04.591Z,10.14
2022-11-23T09:58:04.574Z,10.16
2022-11-23T09:59:04.590Z,10.17
2022-11-23T10:00:04.553Z,10.20
2022-11-23T10:01:04.546Z,10.20
2022-11-23T10:02:04.621Z,10.20
2022-11-23T10:03:04.523Z,10.22
2022-11-23T10:04:04.507Z,10.26
2022-11-23T10:05:04.510Z,10.29
2022-11-23T10:06:04.486Z,10.29
2022-11-23T10:07:04.578Z,10.32
2022-11-23T10:08:04.463Z,10.35
2022-11-23T10:09:04.458Z,10.35
2022-11-23T10:10:04.450Z,10.38
2022-11-23T10:11:04.434Z,10.39
2022-11-23T10:12:04.419Z,10.39
2022-11-23T10:13:04.412Z,10.42
2022-11-23T10:14:04.396Z,10.44
2022-11-23T10:15:04.401Z,10.46
2022-11-23T10:16:04.373Z,10.49
2022-11-23T10:17:04.368Z,10.54
2022-11-23T10:18:04.353Z,10.55
2022-11-23T10:19:04.346Z,10.57
2022-11-23T10:20:04.338Z,10.58
2022-11-23T10:21:04.328Z,10.57
2022-11-23T10:22:04.308Z,10.58
2022-11-23T10:23:04.301Z,10.62
2022-11-23T10:24:04.287Z,10.65
2022-11-23T10:25:04.289Z,10.65
2022-11-23T10:26:04.264Z,10.65
2022-11-23T10:27:04.257Z,10.65
2022-11-23T10:28:04.240Z,10.63
2022-11-23T10:29:04.233Z,10.60
2022-11-23T10:30:04.229Z,10.63
2022-11-23T10:31:04.214Z,10.62
2022-11-23T10:32:04.196Z,10.63
2022-11-23T10:33:04.192Z,10.66
2022-11-23T10:34:04.180Z,10.66
2022-11-23T10:35:04.178Z,10.68
2022-11-23T10:36:04.154Z,10.72
2022-11-23T10:37:04.146Z,10.70
2022-11-23T10:38:04.133Z,10.70
2022-11-23T10:39:04.124Z,10.72
2022-11-23T10:40:04.118Z,10.76
2022-11-23T10:41:04.138Z,10.81
2022-11-23T10:42:04.085Z,10.86
2022-11-23T10:43:04.082Z,10.87
2022-11-23T10:44:04.063Z,10.90
2022-11-23T10:45:04.067Z,10.93
2022-11-23T10:46:04.042Z,10.95
2022-11-23T10:47:04.038Z,10.99
2022-11-23T10:48:04.021Z,11.01
2022-11-23T10:49:04.015Z,11.02
2022-11-23T10:50:04.008Z,11.02
2022-11-23T10:51:03.993Z,11.01
2022-11-23T10:52:03.983Z,10.98
2022-11-23T10:53:03.969Z,10.91
2022-11-23T10:54:05.609Z,10.86
2022-11-23T10:55:03.956Z,10.83
2022-11-23T10:56:03.930Z,10.76
2022-11-23T10:57:03.925Z,10.78
2022-11-23T10:58:03.910Z,10.81
2022-11-23T10:59:03.904Z,10.80
2022-11-23T11:00:03.899Z,10.81
2022-11-23T11:01:03.890Z,10.83
2022-11-23T11:02:03.901Z,10.83
2022-11-23T11:03:04.005Z,10.81
2022-11-23T11:04:03.851Z,10.86
2022-11-23T11:05:03.857Z,10.86
2022-11-23T11:06:09.103Z,10.87
2022-11-23T11:07:03.841Z,10.88
2022-11-23T11:08:03.799Z,10.87
2022-11-23T11:09:05.072Z,10.88
2022-11-23T11:10:03.776Z,10.90
2022-11-23T11:11:03.780Z,10.90
2022-11-23T11:12:03.764Z,10.91
2022-11-23T11:13:03.748Z,10.94
2022-11-23T11:14:03.731Z,10.91
2022-11-23T11:15:11.246Z,10.87
2022-11-23T11:16:03.729Z,10.86
2022-11-23T11:17:03.734Z,10.81
2022-11-23T11:18:03.691Z,10.80
2022-11-23T11:19:03.682Z,10.80
2022-11-23T11:20:03.665Z,10.76
2022-11-23T11:21:03.670Z,10.78
2022-11-23T11:22:03.652Z,10.75
2022-11-23T11:23:03.641Z,10.75
2022-11-23T11:24:03.624Z,10.72
2022-11-23T11:25:03.617Z,10.69
2022-11-23T11:26:03.611Z,10.68
2022-11-23T11:27:03.596Z,10.69
2022-11-23T11:28:03.578Z,10.68
2022-11-23T11:29:03.594Z,10.66
2022-11-23T11:30:03.556Z,10.65
2022-11-23T11:31:03.560Z,10.65
2022-11-23T11:32:03.533Z,10.66
2022-11-23T11:33:04.962Z,10.66
2022-11-23T11:34:03.540Z,10.68
2022-11-23T11:35:03.505Z,10.66
2022-11-23T11:36:03.505Z,10.65
2022-11-23T11:37:03.483Z,10.65
2022-11-23T11:38:03.466Z,10.65
2022-11-23T11:39:19.708Z,10.62
2022-11-23T11:40:03.455Z,10.57
2022-11-23T11:41:03.447Z,10.57
2022-11-23T11:42:03.424Z,10.57
2022-11-23T11:43:03.413Z,10.57
2022-11-23T11:44:03.406Z,10.55
2022-11-23T11:45:03.391Z,10.55
2022-11-23T11:46:27.928Z,10.57
2022-11-23T11:47:03.378Z,10.58
2022-11-23T11:48:03.359Z,10.60
2022-11-23T11:49:03.344Z,10.60
2022-11-23T11:50:03.338Z,10.63
2022-11-23T11:51:03.349Z,10.66
2022-11-23T11:52:03.322Z,10.68
2022-11-23T11:53:03.361Z,10.66
2022-11-23T11:54:03.294Z,10.63
2022-11-23T11:55:03.303Z,10.65
2022-11-23T11:56:03.315Z,10.66
2022-11-23T11:57:03.266Z,10.63
2022-11-23T11:58:03.250Z,10.62
2022-11-23T11:59:03.236Z,10.58
2022-11-23T12:00:03.233Z,10.55
2022-11-23T12:01:03.211Z,10.55
2022-11-23T12:02:03.219Z,10.54
2022-11-23T12:03:03.230Z,10.52
2022-11-23T12:04:03.186Z,10.51
2022-11-23T12:05:03.166Z,10.52
2022-11-23T12:06:03.181Z,10.52
2022-11-23T12:07:03.158Z,10.52
2022-11-23T12:08:03.138Z,10.51
2022-11-23T12:09:03.130Z,10.49
2022-11-23T12:10:03.113Z,10.47
2022-11-23T12:11:03.107Z,10.47
2022-11-23T12:12:03.705Z,10.49
2022-11-23T12:13:03.093Z,10.52
2022-11-23T12:14:03.068Z,10.52
2022-11-23T12:15:11.038Z,10.52
2022-11-23T12:16:03.053Z,10.54
2022-11-23T12:17:31.593Z,10.55
2022-11-23T12:18:03.028Z,10.57
2022-11-23T12:19:03.017Z,10.60
2022-11-23T12:20:03.001Z,10.62
2022-11-23T12:21:03.115Z,10.63
2022-11-23T12:22:03.127Z,10.63
2022-11-23T12:23:02.980Z,10.60
2022-11-23T12:24:02.959Z,10.63
2022-11-23T12:25:02.952Z,10.63
2022-11-23T12:26:02.935Z,10.63
2022-11-23T12:27:02.937Z,10.63
2022-11-23T12:28:02.911Z,10.63
2022-11-23T12:29:02.909Z,10.62
2022-11-23T12:30:02.889Z,10.62
2022-11-23T12:31:02.885Z,10.62
2022-11-23T12:32:02.880Z,10.62
2022-11-23T12:33:02.862Z,10.60
2022-11-23T12:34:02.848Z,10.62
2022-11-23T12:35:02.848Z,10.60
2022-11-23T12:36:02.824Z,10.57
2022-11-23T12:37:02.827Z,10.57
2022-11-23T12:38:02.800Z,10.52
2022-11-23T12:39:02.800Z,10.52
2022-11-23T12:40:02.798Z,10.52
2022-11-23T12:41:02.771Z,10.51
2022-11-23T12:42:02.767Z,10.52
2022-11-23T12:43:02.748Z,10.51
2022-11-23T12:44:02.739Z,10.52
2022-11-23T12:45:02.747Z,10.51
2022-11-23T12:46:02.714Z,10.47
2022-11-23T12:47:02.724Z,10.49
2022-11-23T12:48:02.691Z,10.51
2022-11-23T12:49:02.696Z,10.49
2022-11-23T12:50:02.688Z,10.51
2022-11-23T12:51:02.660Z,10.49
2022-11-23T12:52:02.663Z,10.47
2022-11-23T12:53:02.642Z,10.49
2022-11-23T12:54:02.704Z,10.52
2022-11-23T12:55:02.619Z,10.57
2022-11-23T12:56:02.601Z,10.60
2022-11-23T12:57:02.599Z,10.58
2022-11-23T12:58:02.590Z,10.55
2022-11-23T12:59:02.575Z,10.57
2022-11-23T13:00:02.558Z,10.57
2022-11-23T13:01:02.584Z,10.52
2022-11-23T13:02:02.580Z,10.51
2022-11-23T13:03:02.547Z,10.52
2022-11-23T13:04:02.516Z,10.54
2022-11-23T13:05:02.508Z,10.52
2022-11-23T13:06:02.493Z,10.51
2022-11-23T13:08:02.522Z,10.49
2022-11-23T13:09:02.460Z,10.51
2022-11-23T13:10:02.446Z,10.55
2022-11-23T13:11:02.448Z,10.57
2022-11-23T13:12:02.424Z,10.57